LEVX/VGO METAR and TAF weather

Enter ICAO airport designator
Station Type Date Time Source
LEVX METAR 2020/01/23 06:00 UTC NOAA

LEVX 230600Z VRB02KT CAVOK 09/02 Q1015 NOSIG


Station Type Date Time Source
LEVX Decoded METAR 2020/01/23 06:00 UTC NOAA

Vigo / Peinador, Spain (LEVX) 42-13N 008-38W 255M
Jan 23, 2020 - 01:00 AM EST / 2020.01.23 0600 UTC
Wind: Variable at 2 MPH (2 KT):0
Visibility: greater than 7 mile(s):0
Temperature: 48 F (9 C)
Dew Point: 35 F (2 C)
Relative Humidity: 61%
Pressure (altimeter): 29.97 in. Hg (1015 hPa)
ob: LEVX 230600Z VRB02KT CAVOK 09/02 Q1015 NOSIG
cycle: 6

Station Type Date Time Source
LEVX TAF 2020/01/23 06:27 UTC NOAA

TAF LEVX 230500Z 2306/2406 12007KT CAVOK TX13/2314Z TN05/2406Z PROB30
TEMPO 2321/2324 3000 -RA

Example: see airport list